Latest Weather Observations for Tasman Island

IDT60901

Issued at 8:31 pm EST Friday 4 September 2015 (issued every 10 minutes, with the page automatically refreshed every 10 minutes)

About weather observations | Map of Hobart area stations | Latest observations for Hobart area | Other Formats
Station Details ID: 094155 Name: TASMAN ISLAND Lat: -43.24 Lon: 148.00 Height: 240.0 m
Data from the previous 72 hours. | See also: Recent months at Tasman Island
Date/Time
EST
Tmp

°C
App
Tmp
°C
Dew
Point
°C
Rel
Hum
%
Delta-T

°C
Wind Press
QNH
hPa
Press
MSL
hPa
Rain
since
9 am
mm
Dir
 
Spd
km/h
Gust
km/h
Spd
kts
Gust
kts
04/08:30pm 8.3 5.2 5.4 82 1.3 NNW 11 43 6 23 1014.2 1014.5 0.0
04/08:00pm 8.5 4.9 4.9 78 1.6 NW 13 35 7 19 1013.9 1014.2 0.0
04/07:30pm 8.7 5.0 4.7 76 1.8 NW 13 57 7 31 1013.9 1014.2 0.0
04/07:00pm 8.9 5.6 4.7 75 1.9 NW 11 35 6 19 1013.7 1014.0 0.0
04/06:30pm 9.3 6.2 5.5 77 1.7 WSW 11 39 6 21 1013.4 1013.7 0.0
04/06:00pm 9.3 6.1 4.9 74 2.0 N 11 33 6 18 1012.7 1013.0 0.0
04/05:30pm 9.6 5.6 5.0 73 2.1 W 15 39 8 21 1012.8 1013.1 0.0
04/05:00pm 9.9 6.7 4.9 71 2.3 NNW 11 35 6 19 1012.8 1013.1 0.0
04/04:30pm 10.6 6.8 5.6 71 2.3 WSW 15 43 8 23 1013.1 1013.4 0.0
04/04:02pm 10.9 4.5 5.2 68 2.6 W 28 52 15 28 1013.1 1013.4 0.0
04/04:00pm 10.8 4.8 5.1 68 2.6 W 26 52 14 28 1013.1 1013.4 0.0
04/03:30pm 11.0 7.0 5.1 67 2.7 WNW 15 43 8 23 1013.3 1013.6 0.0
04/03:00pm 11.3 5.9 4.5 63 3.1 NW 22 54 12 29 1012.8 1013.1 0.0
04/02:30pm 10.9 5.4 4.1 63 3.1 NW 22 61 12 33 1012.5 1012.7 0.0
04/02:00pm 11.3 7.4 3.6 59 3.5 SSW 13 35 7 19 1012.3 1012.5 0.0
04/01:30pm 11.2 7.3 3.5 59 3.4 ESE 13 59 7 32 1012.7 1013.0 0.0
04/01:00pm 11.0 5.9 3.3 59 3.4 NW 19 41 10 22 1013.7 1014.0 0.0
04/12:30pm 10.6 5.0 3.4 61 3.2 WNW 22 52 12 28 1014.2 1014.5 0.0
04/12:00pm 10.5 5.0 3.8 63 3.0 WNW 22 43 12 23 1014.8 1015.0 0.0
04/11:30am 10.2 5.9 3.5 63 3.0 W 15 41 8 22 1015.1 1015.3 0.0
04/11:00am 10.0 5.6 2.6 60 3.2 WNW 15 43 8 23 1015.3 1015.5 0.0
04/10:30am 9.6 6.4 2.9 63 2.9 WNW 9 30 5 16 1015.5 1015.7 0.0
04/10:00am 9.1 2.6 2.4 63 2.9 WNW 26 41 14 22 1016.0 1016.2 0.0
04/09:30am 8.3 2.9 2.3 66 2.5 WNW 20 41 11 22 1016.1 1016.3 0.0
04/09:00am 7.5 0.0 1.4 65 2.5 WNW 30 44 16 24 1016.5 1016.8 0.0
04/08:30am 6.8 0.4 1.1 67 2.3 WNW 24 43 13 23 1016.6 1016.9 0.0
04/08:00am 6.3 0.2 0.2 65 2.4 WNW 22 43 12 23 1016.9 1017.2 0.0
04/07:30am 6.2 0.0 -0.1 64 2.5 NW 22 41 12 22 1016.9 1017.2 0.0
04/07:22am 6.3 -1.0 0.0 64 2.5 NW 28 48 15 26 1016.8 1017.1 0.0
04/07:00am 5.8 -2.3 0.0 66 2.3 WNW 32 43 17 23 1016.6 1016.9 0.0
04/06:30am 5.4 -1.2 -0.2 67 2.2 NW 24 43 13 23 1016.6 1016.9 0.0
04/06:00am 5.0 -2.0 -0.6 67 2.1 WNW 26 37 14 20 1016.9 1017.2 0.0
04/05:30am 5.0 -1.3 -0.8 66 2.2 WNW 22 35 12 19 1016.8 1017.1 0.0
04/05:00am 4.9 -2.5 -0.7 67 2.1 WNW 28 41 15 22 1017.0 1017.3 0.0
04/04:30am 4.8 -3.0 -0.6 68 2.0 NW 30 44 16 24 1017.2 1017.5 0.0
04/04:00am 4.7 -1.1 -0.1 71 1.8 NW 20 35 11 19 1017.3 1017.6 0.0
04/03:30am 4.8 0.7 -0.2 70 1.9 W 11 32 6 17 1017.6 1017.9 0.0
04/03:00am 4.9 1.7 0.5 73 1.7 NW 7 20 4 11 1017.8 1018.1 0.0
04/02:30am 4.8 1.8 0.6 74 1.6 WNW 6 13 3 7 1018.1 1018.4 0.0
04/02:00am 4.8 1.8 0.6 74 1.6 SSW 6 20 3 11 1018.2 1018.5 0.0
04/01:30am 4.9 1.7 0.5 73 1.7 WNW 7 26 4 14 1018.7 1019.0 0.0
04/01:00am 5.0 1.4 0.6 73 1.7 NW 9 26 5 14 1018.9 1019.1 0.0
04/12:30am 5.5 1.9 0.3 69 2.0 WNW 9 28 5 15 1019.2 1019.4 0.0
04/12:00am 5.4 2.1 -0.2 67 2.2 ENE 7 24 4 13 1019.1 1019.3 0.0
 
Date/Time
EST
Tmp

°C
App
Tmp
°C
Dew
Point
°C
Rel
Hum
%
Delta-T

°C
Wind Press
QNH
hPa
Press
MSL
hPa
Rain
since
9 am
mm
Dir
 
Spd
km/h
Gust
km/h
Spd
kts
Gust
kts
03/11:30pm 5.7 2.1 0.3 68 2.1 WNW 9 28 5 15 1018.9 1019.1 0.0
03/11:00pm 5.9 1.9 0.7 69 2.1 NW 11 32 6 17 1019.1 1019.3 0.0
03/10:30pm 6.0 2.0 0.8 69 2.1 WNW 11 33 6 18 1019.1 1019.3 0.0
03/10:00pm 6.0 2.1 1.2 71 1.9 SW 11 35 6 19 1019.2 1019.4 0.0
03/09:30pm 6.2 2.6 0.3 66 2.3 SW 9 37 5 20 1018.9 1019.1 0.0
03/09:00pm 6.2 0.9 -0.5 62 2.6 SW 17 46 9 25 1018.7 1019.0 0.0
03/08:30pm 6.1 0.4 -1.1 60 2.7 WSW 19 39 10 21 1018.5 1018.8 0.0
03/08:00pm 6.3 0.5 0.2 65 2.4 SW 20 43 11 23 1018.4 1018.7 0.0
03/07:30pm 6.3 0.5 -0.4 62 2.6 SW 20 44 11 24 1018.3 1018.6 0.0
03/07:12pm 6.2 -0.1 -1.0 60 2.7 SW 22 48 12 26 1018.2 1018.5 0.0
03/07:00pm 6.3 -2.9 -1.1 59 2.8 SW 37 56 20 30 1018.2 1018.5 0.0
03/06:32pm 6.3 -1.1 -0.9 60 2.8 SW 28 48 15 26 1017.9 1018.2 0.0
03/06:30pm 6.3 -0.4 -0.9 60 2.8 SW 24 48 13 26 1017.9 1018.2 0.0
03/06:00pm 6.1 0.4 -0.4 63 2.5 SW 19 41 10 22 1017.6 1017.9 0.0
03/05:40pm 6.2 -1.2 -1.0 60 2.7 SW 28 54 15 29 1017.2 1017.5 0.0
03/05:30pm 6.3 1.5 0.0 64 2.5 SW 15 32 8 17 1017.0 1017.3 0.0
03/05:00pm 6.3 -0.4 -1.1 59 2.8 SW 24 41 13 22 1016.6 1016.9 0.0
03/04:30pm 6.3 0.4 -1.1 59 2.8 SW 20 43 11 23 1016.2 1016.5 0.0
03/04:07pm 6.8 -0.6 -0.9 58 3.0 SW 28 54 15 29 1016.1 1016.3 0.0
03/04:00pm 7.2 1.6 -0.3 59 2.9 SW 19 52 10 28 1016.1 1016.3 0.0
03/03:30pm 6.7 -0.6 0.2 63 2.6 SSW 28 52 15 28 1015.8 1016.0 0.0
03/03:00pm 7.0 -0.9 1.3 67 2.3 SW 32 57 17 31 1015.5 1015.7 0.0
03/02:32pm 6.8 -0.4 0.5 64 2.5 SW 28 50 15 27 1015.1 1015.3 0.0
03/02:30pm 6.8 0.4 0.9 66 2.4 SW 24 43 13 23 1015.2 1015.4 0.0
03/02:00pm 6.7 -1.8 1.0 67 2.3 SW 35 59 19 32 1014.9 1015.1 0.0
03/01:35pm 7.2 -0.2 -0.5 58 3.0 SW 28 63 15 34 1014.8 1015.0 0.0
03/01:30pm 7.7 0.3 -1.0 54 3.4 SW 28 63 15 34 1014.7 1014.9 0.0
03/01:00pm 7.3 -2.4 0.7 63 2.7 SW 41 63 22 34 1014.6 1014.8 0.0
03/12:30pm 7.3 -2.0 0.5 62 2.7 SW 39 61 21 33 1014.5 1014.7 0.0
03/12:00pm 7.8 0.4 1.9 66 2.5 SSW 30 50 16 27 1014.7 1014.9 0.0
03/11:33am 7.3 -1.1 1.6 67 2.3 SW 35 54 19 29 1014.5 1014.7 0.0
03/11:30am 7.3 -1.4 2.0 69 2.2 SW 37 52 20 28 1014.5 1014.7 0.0
03/11:00am 6.8 -3.0 2.5 74 1.8 SW 43 65 23 35 1014.1 1014.4 0.0
03/10:31am 7.7 -0.7 1.8 66 2.5 SW 35 56 19 30 1013.8 1014.1 0.0
03/10:30am 7.5 -1.3 1.4 65 2.5 SW 37 56 20 30 1013.8 1014.1 0.0
03/10:00am 7.3 -0.2 1.4 66 2.4 SSW 30 54 16 29 1013.5 1013.8 0.0
03/09:31am 7.5 0.6 2.6 71 2.1 SSW 28 48 15 26 1013.4 1013.7 0.0
03/09:30am 7.5 0.3 2.8 72 2.0 SSW 30 48 16 26 1013.4 1013.7 0.0
03/09:00am 7.5 -0.5 0.5 61 2.8 SSW 32 50 17 27 1012.9 1013.2 -
03/08:30am 7.4 -0.2 2.7 72 2.0 SSW 32 56 17 30 1012.3 1012.5 -
03/08:08am 7.2 -1.0 2.9 74 1.8 SSW 35 56 19 30 1012.0 1012.2 -
03/08:00am 6.9 -1.2 3.2 77 1.6 SSW 35 50 19 27 1012.0 1012.2 -
03/07:30am 6.9 -0.8 2.2 72 2.0 SSW 32 52 17 28 1011.5 1011.7 -
03/07:03am 6.9 -0.8 3.5 79 1.5 SSW 33 52 18 28 1010.9 1011.1 -
03/07:00am 6.7 -1.4 3.3 79 1.5 SSW 35 52 19 28 1010.9 1011.1 -
03/06:31am 6.9 -0.7 4.0 82 1.3 SSW 33 54 18 29 1010.2 1010.4 -
03/06:30am 7.0 -0.6 4.1 82 1.3 SSW 33 48 18 26 1010.2 1010.4 -
03/06:00am 7.0 -0.3 5.3 89 0.8 SSW 33 52 18 28 1009.5 1009.8 -
03/05:30am 6.5 -0.2 5.8 95 0.3 SSW 30 50 16 27 1009.0 1009.2 -
03/05:21am 7.1 1.0 6.4 95 0.3 SW 28 54 15 29 1009.0 1009.2 -
03/05:00am 7.2 2.2 6.3 94 0.4 WSW 22 44 12 24 1008.9 1009.1 -
03/04:30am 7.1 2.4 5.9 92 0.5 WSW 20 43 11 23 1008.5 1008.7 -
03/04:00am 6.8 2.2 5.6 92 0.5 WSW 19 35 10 19 1008.5 1008.7 -
03/03:30am 6.5 1.7 5.6 94 0.4 SW 20 37 11 20 1008.2 1008.4 -
03/03:03am 6.5 -0.7 5.8 95 0.3 SW 33 54 18 29 1008.1 1008.3 -
03/03:00am 6.4 -1.6 5.8 96 0.3 SW 37 56 20 30 1008.1 1008.3 3.0
03/02:40am 6.9 0.7 6.3 96 0.3 SW 28 61 15 33 1008.1 1008.3 -
03/02:30am 7.2 2.2 6.6 96 0.3 SW 22 43 12 23 1008.2 1008.4 -
03/02:00am 7.1 4.5 6.0 93 0.5 WSW 9 26 5 14 1008.3 1008.5 -
03/01:30am 7.5 5.3 6.0 90 0.7 WSW 7 19 4 10 1008.4 1008.6 -
03/01:00am 7.9 4.9 6.0 88 0.9 WNW 11 19 6 10 1008.3 1008.5 -
03/12:30am 7.4 4.4 6.0 91 0.6 WNW 11 15 6 8 1008.3 1008.5 -
03/12:00am 7.7 4.4 6.3 91 0.6 WNW 13 17 7 9 1008.0 1008.2 -
 
Date/Time
EST
Tmp

°C
App
Tmp
°C
Dew
Point
°C
Rel
Hum
%
Delta-T

°C
Wind Press
QNH
hPa
Press
MSL
hPa
Rain
since
9 am
mm
Dir
 
Spd
km/h
Gust
km/h
Spd
kts
Gust
kts
02/11:30pm 7.1 3.7 6.0 93 0.5 NW 13 15 7 8 1008.1 1008.3 -
02/11:00pm 6.6 4.3 5.7 94 0.4 NNW 7 7 4 4 1008.4 1008.6 -
02/10:30pm 6.8 4.7 5.9 94 0.4 NNW 6 7 3 4 1008.5 1008.7 -
02/10:00pm 7.3 5.3 6.1 92 0.6 W 6 9 3 5 1008.6 1008.8 -
02/09:30pm 7.3 5.6 5.8 90 0.7 W 4 7 2 4 1008.6 1008.8 -
02/09:00pm 7.2 5.0 5.5 89 0.8 WSW 6 9 3 5 1008.6 1008.8 -
02/08:30pm 7.2 4.9 5.5 89 0.8 SW 7 11 4 6 1008.5 1008.7 -
02/08:00pm 7.2 4.4 5.2 87 0.9 SSW 9 15 5 8 1008.6 1008.8 -
02/07:30pm 7.0 4.1 4.5 84 1.1 SSW 9 17 5 9 1008.5 1008.7 -
02/07:00pm 6.9 3.6 4.7 86 1.0 SSW 11 17 6 9 1008.5 1008.7 -
02/06:30pm 7.1 3.3 5.7 91 0.6 SW 15 20 8 11 1008.4 1008.6 -
02/06:00pm 7.0 3.6 5.9 93 0.5 SW 13 20 7 11 1008.4 1008.6 -
02/05:30pm 7.2 4.2 6.1 93 0.5 SW 11 15 6 8 1008.4 1008.6 -
02/05:00pm 7.4 4.8 6.2 92 0.6 SW 9 11 5 6 1008.3 1008.5 -
02/04:30pm 7.9 5.7 6.4 90 0.7 SW 7 11 4 6 1008.2 1008.4 0.0
02/04:00pm 8.2 6.1 6.5 89 0.8 S 7 11 4 6 1008.0 1008.2 0.0
02/03:30pm 9.1 7.2 6.5 84 1.2 SSW 6 9 3 5 1008.3 1008.5 0.0
02/03:00pm 9.4 7.7 5.9 79 1.6 SE 4 7 2 4 1008.4 1008.6 0.0
02/02:30pm 9.8 7.8 6.2 78 1.7 SSE 6 9 3 5 1008.5 1008.7 0.0
02/02:00pm 10.0 7.8 6.2 77 1.8 ENE 7 13 4 7 1008.7 1008.9 0.0
02/01:30pm 9.6 7.7 6.5 81 1.5 ESE 6 9 3 5 1009.0 1009.2 0.0
02/01:00pm 9.8 7.7 6.7 81 1.5 SE 7 13 4 7 1009.5 1009.8 0.0
02/12:30pm 10.5 8.6 6.6 77 1.9 SE 6 9 3 5 1009.8 1010.1 0.0
02/12:00pm 10.4 8.3 5.6 72 2.2 NNW 6 15 3 8 1010.5 1010.7 0.0
02/11:30am 9.8 7.5 5.8 76 1.9 NNW 7 11 4 6 1011.0 1011.2 0.0
02/11:00am 10.0 7.8 6.2 77 1.8 N 7 17 4 9 1010.9 1011.1 0.0
02/10:30am 9.5 7.3 6.4 81 1.5 N 7 13 4 7 1011.3 1011.5 0.0
02/10:00am 9.3 7.1 6.4 82 1.4 N 7 11 4 6 1011.5 1011.7 0.0
02/09:30am 9.0 7.5 7.0 87 0.9 NNE 4 9 2 5 1011.7 1011.9 0.0
02/09:00am 8.2 6.3 6.5 89 0.8 NNW 6 9 3 5 1011.9 1012.1 -
02/08:30am 7.5 5.3 6.0 90 0.7 NE 7 11 4 6 1012.0 1012.2 0.2
02/08:00am 7.7 5.7 6.3 91 0.6 SE 6 9 3 5 1012.1 1012.3 0.2
02/07:30am 7.3 6.0 6.2 93 0.5 WSW 2 4 1 2 1012.1 1012.3 0.2
02/07:00am 6.8 5.1 5.9 94 0.4 NNW 4 7 2 4 1011.9 1012.1 0.2
02/06:30am 6.8 3.4 5.9 94 0.4 N 13 26 7 14 1011.8 1012.0 0.2
02/06:00am 6.6 2.0 5.7 94 0.4 NNE 19 32 10 17 1011.8 1012.0 0.2
02/05:30am 6.6 2.4 5.7 94 0.4 NNE 17 24 9 13 1011.8 1012.0 0.0
02/05:00am 6.5 2.3 5.6 94 0.4 NNE 17 20 9 11 1011.9 1012.1 0.0
02/04:30am 6.2 2.6 5.2 93 0.4 NNE 13 17 7 9 1012.0 1012.2 0.0
02/04:00am 5.8 2.9 4.6 92 0.5 NNE 9 13 5 7 1012.0 1012.2 0.0
02/03:30am 6.1 2.8 4.6 90 0.7 N 11 17 6 9 1012.3 1012.5 0.0
02/03:00am 5.9 3.5 4.5 91 0.6 NNE 6 7 3 4 1012.5 1012.7 0.0
02/02:30am 6.2 4.3 4.8 91 0.6 WNW 4 6 2 3 1013.0 1013.3 0.0
02/02:00am 6.3 4.4 5.1 92 0.5 WNW 4 6 2 3 1013.3 1013.6 0.0
02/01:30am 6.3 4.5 5.3 93 0.4 WNW 4 6 2 3 1013.6 1013.9 0.0
02/01:00am 6.2 4.0 5.5 95 0.3 WSW 6 7 3 4 1013.7 1014.0 0.0
02/12:30am 5.9 3.7 5.2 95 0.3 W 6 7 3 4 1013.6 1013.9 0.0
02/12:00am 5.4 2.5 4.7 95 0.3 W 9 11 5 6 1013.8 1014.1 0.0
 
Date/Time
EST
Tmp

°C
App
Tmp
°C
Dew
Point
°C
Rel
Hum
%
Delta-T

°C
Wind Press
QNH
hPa
Press
MSL
hPa
Rain
since
9 am
mm
Dir
 
Spd
km/h
Gust
km/h
Spd
kts
Gust
kts
01/11:30pm 5.9 3.5 5.2 95 0.3 W 7 9 4 5 1013.7 1014.0 0.0
01/11:00pm 5.9 3.7 5.2 95 0.3 W 6 7 3 4 1013.7 1014.0 0.0
01/10:30pm 6.0 3.6 5.3 95 0.3 NW 7 9 4 5 1013.8 1014.1 0.0
01/10:00pm 6.7 4.6 5.8 94 0.4 WNW 6 9 3 5 1013.9 1014.2 0.0
01/09:30pm 6.8 5.1 5.7 93 0.5 NW 4 7 2 4 1013.9 1014.2 0.0
01/09:00pm 7.0 5.7 5.9 93 0.5 NNW 2 6 1 3 1013.8 1014.1 0.0

Latest Capital City Observations: Canberra | Sydney | Melbourne | Brisbane | Adelaide | Perth | Hobart | Darwin

Other Formats:

Comma delimited format used in spreadsheet applications
http://www.bom.gov.au/fwo/IDT60901/IDT60901.95986.axf

JavaScript Object Notation format (JSON) in row-major order
http://www.bom.gov.au/fwo/IDT60901/IDT60901.95986.json